Terminal Aerodrome Forecast
Issued by NWS

Home | Current Version | Previous Version | Text Only | Print | Product List | Glossary On
Versions: 1 2 3 4 5 6 7 8 9 10 11 12 13 14
000
FTUS45 KTFX 271100
TAFHVR
TAF
KHVR 271136Z 2712/2812 VRB06KT P6SM OVC180
     FM271800 31006KT P6SM BKN150
     FM272200 30008KT P6SM SCT030 OVC120
     FM280500 32006KT P6SM VCSH OVC015=

USA.gov is the U.S. government's official web portal to all federal, state and local government web resources and services.